Time;durP1;ratioP1;P1;durP2;ratioP2;P2;SDS_P1;SDS_P2;PMS_P1;PMS_P2;Temp;Humidity;BMP_temperature;BMP_pressure;BME280_temperature;BME280_humidity;BME280_pressure;Samples;Min_cycle;Max_cycle;Signal;HPM_P1;HPM_P2
2022/10/30 00:00:40;;;;;;;6.78;3.42;;;;;;;15.35;86.40;100583.03;5051791;28;20049;-64
2022/10/30 00:03:12;;;;;;;7.95;3.05;;;;;;;15.29;86.43;100577.81;5057845;28;20060;-65
2022/10/30 00:05:43;;;;;;;5.65;3.60;;;;;;;15.27;86.32;100574.47;5049371;28;20045;-65
2022/10/30 00:08:12;;;;;;;8.55;4.15;;;;;;;15.36;87.15;100579.06;5053111;28;20511;-65
2022/10/30 00:10:39;;;;;;;7.78;5.03;;;;;;;15.49;87.52;100587.84;5051260;28;20052;-67
2022/10/30 00:13:06;;;;;;;12.10;4.25;;;;;;;15.61;87.79;100580.50;5036300;28;20049;-65
2022/10/30 00:15:34;;;;;;;6.28;4.40;;;;;;;15.73;87.76;100587.66;5050629;28;20072;-65
2022/10/30 00:18:01;;;;;;;8.82;4.05;;;;;;;15.82;88.08;100580.94;5043073;28;20048;-65
2022/10/30 00:20:27;;;;;;;14.43;6.63;;;;;;;15.94;87.82;100588.03;5047825;28;20049;-65
2022/10/30 00:22:55;;;;;;;9.52;5.07;;;;;;;15.91;87.68;100578.22;5052852;28;20488;-68
2022/10/30 00:25:22;;;;;;;15.52;5.50;;;;;;;16.04;88.02;100599.91;5054278;28;20499;-68
2022/10/30 00:27:49;;;;;;;7.70;4.38;;;;;;;16.08;87.89;100592.47;5051644;28;20056;-67
2022/10/30 00:30:17;;;;;;;8.40;3.83;;;;;;;16.09;87.97;100584.84;5047656;28;20396;-66
2022/10/30 00:32:44;;;;;;;11.27;4.55;;;;;;;16.13;87.67;100588.69;5040109;28;20420;-67
2022/10/30 00:35:11;;;;;;;10.57;4.60;;;;;;;16.18;87.86;100594.22;5035516;28;20049;-66
2022/10/30 00:37:38;;;;;;;8.55;4.40;;;;;;;16.21;87.60;100599.22;5054784;28;20053;-66
2022/10/30 00:40:06;;;;;;;11.38;4.40;;;;;;;16.21;87.76;100593.59;5046236;28;20057;-66
2022/10/30 00:42:33;;;;;;;10.02;4.78;;;;;;;16.24;87.43;100597.75;5044534;28;20049;-66
2022/10/30 00:45:00;;;;;;;6.80;4.88;;;;;;;16.26;87.83;100599.09;5038821;28;20049;-65
2022/10/30 00:47:32;;;;;;;8.00;4.85;;;;;;;16.24;87.59;100592.09;5049839;28;20049;-65
2022/10/30 00:50:14;;;;;;;11.00;5.15;;;;;;;16.08;87.31;100583.19;5050251;28;20184;-65
2022/10/30 00:52:59;;;;;;;9.35;4.55;;;;;;;16.05;87.33;100583.81;5045976;28;20103;-66
2022/10/30 00:55:32;;;;;;;10.35;4.07;;;;;;;16.02;87.54;100578.81;5054200;28;20488;-67
2022/10/30 00:58:02;;;;;;;6.15;4.32;;;;;;;16.07;87.17;100587.19;5051152;28;20143;-66
2022/10/30 01:00:29;;;;;;;9.80;4.07;;;;;;;16.08;87.39;100591.66;5050615;28;20143;-65
2022/10/30 01:02:57;;;;;;;10.50;4.00;;;;;;;16.08;87.18;100584.03;5044189;28;20045;-66
2022/10/30 01:05:27;;;;;;;6.22;4.13;;;;;;;16.08;87.33;100586.84;5050456;28;20048;-66
2022/10/30 01:07:54;;;;;;;8.05;5.15;;;;;;;16.08;87.29;100594.47;5049711;28;20499;-66
2022/10/30 01:10:22;;;;;;;8.13;4.65;;;;;;;16.07;87.22;100590.00;5053712;28;20500;-65
2022/10/30 01:12:51;;;;;;;6.65;4.88;;;;;;;16.03;87.21;100597.38;5054112;28;20059;-66
2022/10/30 01:15:23;;;;;;;7.47;3.83;;;;;;;15.99;87.00;100588.72;5049778;28;20044;-65
2022/10/30 01:18:20;;;;;;;7.88;3.92;;;;;;;15.90;87.08;100598.25;5050817;28;20049;-66
2022/10/30 01:21:10;;;;;;;8.25;3.72;;;;;;;15.86;87.34;100595.22;5050413;28;20055;-67
2022/10/30 01:24:12;;;;;;;10.60;3.83;;;;;;;15.80;87.48;100604.94;5038604;28;20048;-69
2022/10/30 01:26:50;;;;;;;9.65;4.18;;;;;;;15.80;87.56;100594.53;5042896;28;20052;-65
2022/10/30 01:29:39;;;;;;;11.00;3.83;;;;;;;15.68;87.45;100596.19;5053883;28;20057;-63
2022/10/30 01:32:27;;;;;;;9.55;4.97;;;;;;;15.67;87.11;100586.91;5050598;28;20056;-64
2022/10/30 01:35:01;;;;;;;11.95;4.65;;;;;;;15.62;87.52;100581.34;5043495;28;20492;-64
2022/10/30 01:38:03;;;;;;;6.53;3.72;;;;;;;15.52;87.44;100578.75;5049995;28;20064;-64
2022/10/30 01:40:31;;;;;;;6.25;4.05;;;;;;;15.53;87.68;100595.34;5040151;28;20060;-63
2022/10/30 01:42:59;;;;;;;6.75;4.07;;;;;;;15.50;88.22;100592.31;5048738;28;20119;-64
2022/10/30 01:45:43;;;;;;;9.15;4.80;;;;;;;15.51;88.00;100585.53;5053676;28;20047;-65
2022/10/30 01:48:47;;;;;;;6.20;4.55;;;;;;;15.39;87.75;100583.25;5043070;28;20060;-64
2022/10/30 01:51:38;;;;;;;5.80;4.07;;;;;;;15.37;88.42;100588.34;5043538;28;20048;-65
2022/10/30 01:54:14;;;;;;;8.73;3.85;;;;;;;15.46;88.19;100582.84;5048054;28;20045;-64
2022/10/30 01:57:02;;;;;;;9.82;3.92;;;;;;;15.52;88.27;100581.56;5050192;28;20114;-64
2022/10/30 01:59:46;;;;;;;10.23;4.10;;;;;;;15.47;88.09;100576.06;5051897;28;20049;-64
2022/10/30 02:02:13;;;;;;;7.70;3.65;;;;;;;15.54;88.40;100580.09;5041482;28;20431;-65
2022/10/30 02:04:41;;;;;;;8.35;3.45;;;;;;;15.61;87.77;100582.50;5048956;28;20045;-64
2022/10/30 02:07:10;;;;;;;5.10;3.33;;;;;;;15.61;88.22;100568.44;5048623;28;20045;-66
2022/10/30 02:09:38;;;;;;;10.88;4.20;;;;;;;15.60;87.64;100575.22;5044795;28;20405;-66
2022/10/30 02:12:07;;;;;;;7.50;3.20;;;;;;;15.64;87.85;100565.00;5045939;28;20053;-64
2022/10/30 02:14:38;;;;;;;4.75;2.72;;;;;;;15.64;87.62;100567.81;5046801;28;20060;-65
2022/10/30 02:17:08;;;;;;;4.85;3.17;;;;;;;15.67;87.73;100572.84;5048865;28;20068;-65
2022/10/30 02:19:35;;;;;;;8.15;3.38;;;;;;;15.65;87.52;100570.28;5052727;28;20049;-66
2022/10/30 02:22:02;;;;;;;5.45;2.78;;;;;;;15.64;87.16;100562.19;5048623;28;20056;-66
2022/10/30 02:24:32;;;;;;;8.02;4.00;;;;;;;15.58;87.45;100554.97;5048371;28;20507;-66
2022/10/30 02:26:59;;;;;;;4.65;2.65;;;;;;;15.52;87.47;100559.91;5048643;28;20818;-65
2022/10/30 02:29:26;;;;;;;5.38;3.22;;;;;;;15.50;87.33;100561.34;5042199;28;20049;-67
2022/10/30 02:31:53;;;;;;;6.85;2.90;;;;;;;15.49;86.96;100565.31;5048311;28;20053;-67
2022/10/30 02:34:20;;;;;;;3.17;2.80;;;;;;;15.46;87.02;100555.53;5036338;28;20050;-67
2022/10/30 02:36:47;;;;;;;11.65;3.40;;;;;;;15.44;87.01;100552.19;5048849;28;20045;-67
2022/10/30 02:39:14;;;;;;;8.25;3.78;;;;;;;15.47;86.94;100556.34;5050085;28;20418;-67
2022/10/30 02:41:40;;;;;;;6.10;3.63;;;;;;;15.38;87.27;100551.47;5045029;28;20492;-68
2022/10/30 02:44:07;;;;;;;6.43;2.65;;;;;;;15.36;87.37;100559.38;5050626;28;20045;-68
2022/10/30 02:46:34;;;;;;;5.38;2.90;;;;;;;15.37;87.48;100561.03;5051555;28;20076;-66
2022/10/30 02:49:01;;;;;;;7.30;3.45;;;;;;;15.41;87.57;100561.25;5044447;28;20441;-66
2022/10/30 02:51:30;;;;;;;5.22;3.30;;;;;;;15.41;87.18;100559.25;5045576;28;20534;-67
2022/10/30 02:53:58;;;;;;;3.43;2.80;;;;;;;15.41;87.02;100559.25;5048852;28;20048;-67
2022/10/30 02:56:25;;;;;;;5.88;3.42;;;;;;;15.43;87.44;100558.13;5043555;28;20058;-67
2022/10/30 02:58:53;;;;;;;4.75;2.97;;;;;;;15.38;86.97;100551.47;5037008;28;20473;-66
2022/10/30 03:01:20;;;;;;;3.25;2.92;;;;;;;15.37;87.02;100549.78;5037707;28;20050;-65
2022/10/30 03:03:47;;;;;;;4.97;2.97;;;;;;;15.40;87.38;100546.34;5068052;28;20044;-65
2022/10/30 03:06:15;;;;;;;4.47;2.90;;;;;;;15.45;87.23;100541.75;5041572;28;20041;-65
2022/10/30 03:08:43;;;;;;;6.40;2.90;;;;;;;15.40;87.04;100540.72;5051570;28;20059;-65
2022/10/30 03:11:13;;;;;;;3.70;2.80;;;;;;;15.39;86.63;100553.13;5054352;28;20495;-65
2022/10/30 03:13:41;;;;;;;6.15;3.28;;;;;;;15.38;87.21;100551.47;5049242;28;20057;-65
2022/10/30 03:16:23;;;;;;;4.72;2.95;;;;;;;15.36;86.93;100550.94;5054929;28;20052;-65
2022/10/30 03:18:51;;;;;;;6.45;2.92;;;;;;;15.36;86.99;100555.72;5042166;28;20171;-65
2022/10/30 03:21:21;;;;;;;7.72;2.90;;;;;;;15.37;87.00;100555.41;5050537;28;20443;-64
2022/10/30 03:23:51;;;;;;;4.50;3.53;;;;;;;15.35;87.13;100554.91;5047184;28;20045;-64
2022/10/30 03:26:18;;;;;;;;;;;;;;;15.11;87.78;100565.50;5053535;28;20057;-64
2022/10/30 03:28:45;;;;;;;5.72;3.35;;;;;;;15.30;87.72;100563.44;5061039;28;20375;-64
2022/10/30 03:31:15;;;;;;;5.10;3.42;;;;;;;15.30;87.43;100560.63;5051893;28;20053;-64
2022/10/30 03:33:43;;;;;;;4.25;3.17;;;;;;;15.33;87.11;100568.44;5049045;28;20048;-63
2022/10/30 03:36:11;;;;;;;9.57;3.63;;;;;;;15.34;87.50;100558.84;5057183;28;20044;-64
2022/10/30 03:38:38;;;;;;;4.88;3.35;;;;;;;15.36;87.53;100567.00;5052802;28;20072;-65
2022/10/30 03:41:06;;;;;;;4.85;3.63;;;;;;;15.35;86.97;100560.53;5048368;28;20059;-65
2022/10/30 03:43:33;;;;;;;7.07;3.85;;;;;;;15.32;87.11;100561.16;5053558;28;20055;-65
2022/10/30 03:46:00;;;;;;;7.40;3.95;;;;;;;15.33;87.62;100557.19;5051832;28;20049;-64
2022/10/30 03:48:28;;;;;;;7.20;3.85;;;;;;;15.27;87.63;100558.44;5044622;28;20049;-65
2022/10/30 03:50:56;;;;;;;6.05;3.83;;;;;;;15.29;87.20;100558.13;5053517;28;20049;-66
2022/10/30 03:53:25;;;;;;;8.85;3.78;;;;;;;15.27;87.38;100558.44;5051509;28;20053;-65
2022/10/30 03:55:55;;;;;;;10.10;3.90;;;;;;;15.26;87.24;100572.81;5048139;28;20475;-66
2022/10/30 03:58:22;;;;;;;8.02;4.30;;;;;;;15.24;87.62;100581.56;5048779;28;20049;-66
2022/10/30 04:00:49;;;;;;;8.35;3.80;;;;;;;15.22;87.36;100566.97;5048920;28;20136;-66
2022/10/30 04:03:16;;;;;;;8.68;4.20;;;;;;;15.23;87.46;100579.91;5051973;28;20156;-67
2022/10/30 04:05:42;;;;;;;8.95;4.25;;;;;;;15.21;87.49;100584.97;5060140;28;20049;-66
2022/10/30 04:08:13;;;;;;;9.18;4.70;;;;;;;15.20;87.06;100579.69;5055174;28;20523;-66
2022/10/30 04:10:44;;;;;;;10.48;4.93;;;;;;;15.16;87.40;100579.47;5045623;28;20052;-65
2022/10/30 04:13:13;;;;;;;6.82;4.72;;;;;;;15.13;87.56;100577.28;5043238;28;20443;-65
2022/10/30 04:15:40;;;;;;;14.43;5.18;;;;;;;15.06;87.60;100571.22;5050197;28;20053;-66
2022/10/30 04:18:10;;;;;;;8.88;4.88;;;;;;;15.02;87.86;100568.19;5052488;28;20045;-66
2022/10/30 04:20:37;;;;;;;13.02;5.45;;;;;;;15.00;87.91;100569.66;5042609;28;20057;-65
2022/10/30 04:23:05;;;;;;;6.25;4.63;;;;;;;15.03;87.93;100575.47;5046030;28;20049;-65
2022/10/30 04:25:33;;;;;;;7.90;4.97;;;;;;;15.02;88.14;100576.63;5053294;28;20056;-65
2022/10/30 04:28:02;;;;;;;7.15;5.30;;;;;;;15.00;88.41;100580.91;5051580;28;20045;-66
2022/10/30 04:30:33;;;;;;;15.02;5.85;;;;;;;14.96;88.18;100574.22;5049690;28;20091;-67
2022/10/30 04:33:02;;;;;;;16.30;6.22;;;;;;;15.00;88.26;100583.72;5047945;28;20055;-66
2022/10/30 04:35:31;;;;;;;9.60;4.85;;;;;;;14.98;88.32;100588.81;5048308;28;20048;-66
2022/10/30 04:38:00;;;;;;;10.70;5.73;;;;;;;14.97;88.42;100604.00;5049513;28;20080;-65
2022/10/30 04:40:30;;;;;;;12.77;5.10;;;;;;;14.95;88.46;100595.91;5045746;28;20293;-65
2022/10/30 04:42:58;;;;;;;10.80;5.47;;;;;;;14.91;88.25;100589.22;5041018;28;20060;-65
2022/10/30 04:45:25;;;;;;;10.73;5.05;;;;;;;14.93;88.68;100599.00;5044297;28;20140;-65
2022/10/30 04:47:59;;;;;;;16.13;6.13;;;;;;;14.96;88.38;100596.72;5047516;28;20050;-65
2022/10/30 04:50:27;;;;;;;18.17;6.38;;;;;;;15.02;88.66;100613.19;5047337;28;20049;-67
2022/10/30 04:53:20;;;;;;;11.85;7.15;;;;;;;14.93;88.10;100604.63;5052661;28;20048;-67
2022/10/30 04:55:47;;;;;;;12.65;5.63;;;;;;;15.03;88.56;100611.22;5044110;28;20049;-68
2022/10/30 04:58:14;;;;;;;11.07;5.35;;;;;;;15.04;88.44;100612.88;5046560;28;20056;-67
2022/10/30 05:00:41;;;;;;;9.90;4.95;;;;;;;15.01;88.26;100617.16;5048574;28;20045;-67
2022/10/30 05:03:20;;;;;;;9.65;5.32;;;;;;;14.97;88.32;100616.09;5047150;28;20055;-68
2022/10/30 05:05:58;;;;;;;7.35;5.47;;;;;;;14.91;88.08;100612.56;5049391;28;20049;-68
2022/10/30 05:08:25;;;;;;;6.90;4.25;;;;;;;14.90;88.48;100621.28;5047928;28;20049;-68
2022/10/30 05:10:53;;;;;;;7.70;4.63;;;;;;;14.88;88.85;100610.34;5049226;28;20053;-68
2022/10/30 05:13:19;;;;;;;11.55;5.55;;;;;;;14.87;88.76;100617.13;5059100;28;20052;-68
2022/10/30 05:15:46;;;;;;;12.43;5.40;;;;;;;14.86;88.65;100607.00;5044822;28;20045;-68
2022/10/30 05:18:13;;;;;;;12.30;4.63;;;;;;;14.85;88.82;100613.78;5048431;28;20110;-67
2022/10/30 05:20:40;;;;;;;9.25;5.50;;;;;;;14.79;88.95;100608.56;5045413;28;20074;-66
2022/10/30 05:23:08;;;;;;;8.43;5.05;;;;;;;14.81;88.72;100607.09;5049430;28;20053;-66
2022/10/30 05:25:35;;;;;;;10.60;5.20;;;;;;;14.84;89.07;100612.13;5043717;28;20053;-66
2022/10/30 05:28:04;;;;;;;8.50;4.63;;;;;;;14.84;88.74;100602.84;5044326;28;20057;-66
2022/10/30 05:30:34;;;;;;;10.68;5.55;;;;;;;14.82;88.96;100617.19;5048881;28;20052;-66
2022/10/30 05:33:06;;;;;;;9.73;6.05;;;;;;;14.84;88.77;100617.75;5060792;28;20495;-65
2022/10/30 05:35:34;;;;;;;12.68;5.50;;;;;;;14.85;89.22;100622.22;5047868;28;20037;-66
2022/10/30 05:38:04;;;;;;;12.07;6.32;;;;;;;14.84;89.08;100622.53;5048469;28;20116;-65
2022/10/30 05:40:32;;;;;;;9.60;5.95;;;;;;;14.84;89.30;100620.56;5048705;28;20045;-65
2022/10/30 05:42:59;;;;;;;7.57;5.32;;;;;;;14.83;89.13;100621.66;5047661;28;20057;-65
2022/10/30 05:45:27;;;;;;;9.90;6.10;;;;;;;14.80;89.42;100621.44;5043640;28;20046;-64
2022/10/30 05:48:05;;;;;;;11.50;5.50;;;;;;;14.78;89.05;100621.78;5039241;28;20419;-63
2022/10/30 05:50:32;;;;;;;8.38;5.63;;;;;;;14.80;89.66;100630.75;5043309;28;20060;-64
2022/10/30 05:53:02;;;;;;;10.00;5.75;;;;;;;14.82;89.04;100630.44;5048668;28;20049;-64
2022/10/30 05:55:29;;;;;;;9.98;6.15;;;;;;;14.78;89.45;100624.59;5046699;28;20045;-64
2022/10/30 05:58:01;;;;;;;12.05;6.15;;;;;;;14.78;89.28;100623.75;5055466;28;20049;-66
2022/10/30 06:00:29;;;;;;;11.43;5.75;;;;;;;14.75;89.43;100628.00;5051825;28;20049;-66
2022/10/30 06:03:01;;;;;;;7.50;5.22;;;;;;;14.72;89.04;100628.63;5054909;28;20049;-66
2022/10/30 06:05:30;;;;;;;10.00;6.15;;;;;;;14.68;89.25;100625.59;5048543;28;20064;-64
2022/10/30 06:07:57;;;;;;;9.43;5.90;;;;;;;14.64;89.24;100629.31;5044938;28;20078;-66
2022/10/30 06:10:25;;;;;;;7.60;5.38;;;;;;;14.66;89.47;100635.47;5043610;28;20053;-66
2022/10/30 06:12:53;;;;;;;11.20;6.45;;;;;;;14.59;89.23;100632.22;5047950;28;20119;-65
2022/10/30 06:15:21;;;;;;;7.28;5.07;;;;;;;14.56;89.38;100638.44;5051657;28;20045;-65
2022/10/30 06:17:48;;;;;;;9.80;5.90;;;;;;;14.48;89.63;100637.13;5049462;28;20057;-65
2022/10/30 06:20:16;;;;;;;9.90;5.88;;;;;;;14.43;89.54;100629.63;5049474;28;20068;-66
2022/10/30 06:22:56;;;;;;;12.13;7.40;;;;;;;14.33;89.47;100646.63;5040798;28;20764;-66
2022/10/30 06:25:23;;;;;;;;;;;;;;;14.03;90.06;100644.25;5043801;28;20382;-66
2022/10/30 06:27:50;;;;;;;13.52;8.98;;;;;;;14.16;89.71;100651.94;5043023;28;19928;-65
2022/10/30 06:30:17;;;;;;;7.38;5.88;;;;;;;14.16;90.00;100651.94;5037697;28;20049;-65
2022/10/30 06:32:44;;;;;;;7.90;5.40;;;;;;;14.16;89.53;100658.38;5058051;28;20049;-66
2022/10/30 06:35:11;;;;;;;11.98;6.30;;;;;;;14.08;89.91;100647.81;5049032;28;20059;-65
2022/10/30 06:37:45;;;;;;;8.57;5.18;;;;;;;14.05;89.51;100642.81;5045923;28;20057;-65
2022/10/30 06:40:12;;;;;;;8.48;5.85;;;;;;;14.03;89.88;100635.84;5048872;28;20401;-65
2022/10/30 06:42:47;;;;;;;8.45;5.82;;;;;;;14.08;89.79;100646.97;5055784;28;20066;-65
2022/10/30 06:45:15;;;;;;;6.35;4.38;;;;;;;14.06;89.98;100646.47;5045954;28;21228;-66
2022/10/30 06:47:42;;;;;;;8.25;4.65;;;;;;;14.08;89.94;100659.03;5055967;28;20053;-66
2022/10/30 06:50:15;;;;;;;10.75;6.53;;;;;;;14.09;90.12;100655.13;5058680;28;20084;-66
2022/10/30 06:52:42;;;;;;;9.27;6.03;;;;;;;14.07;89.92;100660.19;5037313;28;20042;-65
2022/10/30 06:55:10;;;;;;;11.38;6.15;;;;;;;14.04;89.74;100666.41;5046582;28;20064;-64
2022/10/30 06:57:37;;;;;;;10.48;6.32;;;;;;;13.98;89.87;100662.84;5048699;28;20431;-65
2022/10/30 07:00:06;;;;;;;13.75;8.57;;;;;;;13.98;89.91;100660.03;5046539;28;20049;-65
2022/10/30 07:02:33;;;;;;;8.98;5.90;;;;;;;13.90;89.74;100671.91;5062819;28;20267;-64
2022/10/30 07:05:00;;;;;;;7.10;5.43;;;;;;;13.82;89.56;100674.56;5052975;28;20055;-64
2022/10/30 07:07:27;;;;;;;6.93;5.28;;;;;;;13.77;90.14;100671.81;5050348;28;20057;-64
2022/10/30 07:09:54;;;;;;;8.02;5.60;;;;;;;13.68;89.83;100669.66;5043202;28;20756;-65
2022/10/30 07:12:21;;;;;;;3.53;3.28;;;;;;;13.45;89.71;100673.28;5037456;28;20056;-64
2022/10/30 07:14:47;;;;;;;7.88;4.30;;;;;;;13.09;90.01;100676.41;5046429;28;20065;-64
2022/10/30 07:17:14;;;;;;;4.43;3.20;;;;;;;12.83;91.23;100675.81;5046138;28;20041;-65
2022/10/30 07:19:41;;;;;;;7.07;4.37;;;;;;;12.73;91.84;100682.31;5048313;28;20143;-64
2022/10/30 07:22:08;;;;;;;5.00;4.60;;;;;;;12.65;92.30;100677.34;5044277;28;20057;-64
2022/10/30 07:24:35;;;;;;;10.03;4.50;;;;;;;12.62;92.52;100679.91;5044693;28;20076;-64
2022/10/30 07:27:01;;;;;;;8.95;4.50;;;;;;;12.61;92.90;100679.03;5039125;28;20041;-64
2022/10/30 07:29:28;;;;;;;6.50;4.78;;;;;;;12.62;92.96;100685.50;5038085;28;20045;-63
2022/10/30 07:31:55;;;;;;;9.00;4.72;;;;;;;12.57;92.88;100683.56;5057011;28;20052;-63
2022/10/30 07:34:29;;;;;;;12.60;6.20;;;;;;;12.54;93.09;100684.97;5042818;28;20128;-64
2022/10/30 07:36:56;;;;;;;14.23;7.23;;;;;;;12.57;93.36;100684.41;5040922;28;20053;-64
2022/10/30 07:39:23;;;;;;;10.60;7.13;;;;;;;12.61;93.60;100686.63;5039684;28;20064;-64
2022/10/30 07:41:50;;;;;;;13.10;6.30;;;;;;;12.68;93.70;100699.16;5049875;28;20415;-64
2022/10/30 07:44:16;;;;;;;48.72;11.63;;;;;;;12.77;93.74;100705.81;5047875;28;20056;-64
2022/10/30 07:46:43;;;;;;;27.23;9.33;;;;;;;12.87;93.40;100716.13;5046254;28;20044;-64
2022/10/30 07:49:10;;;;;;;30.90;9.43;;;;;;;12.99;93.51;100705.41;5039029;28;20048;-63
2022/10/30 07:51:37;;;;;;;32.92;9.60;;;;;;;13.08;93.64;100704.75;5045314;28;20389;-64
2022/10/30 07:54:04;;;;;;;44.70;10.57;;;;;;;13.14;93.56;100704.41;5041130;28;20060;-64
2022/10/30 07:56:30;;;;;;;56.47;14.88;;;;;;;13.25;93.60;100706.00;5046270;28;20040;-64
2022/10/30 07:58:57;;;;;;;37.40;11.20;;;;;;;13.28;93.57;100691.41;5037889;28;20159;-64
2022/10/30 08:01:24;;;;;;;27.42;9.52;;;;;;;13.47;93.71;100713.97;5049601;28;20060;-64
2022/10/30 08:03:51;;;;;;;24.70;11.07;;;;;;;13.57;94.00;100712.16;5045768;28;20076;-64
2022/10/30 08:06:18;;;;;;;19.08;8.23;;;;;;;13.74;93.78;100720.94;5048059;28;20408;-63
2022/10/30 08:08:51;;;;;;;26.05;8.82;;;;;;;13.75;93.64;100726.28;5046855;28;20045;-64
2022/10/30 08:11:18;;;;;;;23.10;9.77;;;;;;;13.75;93.61;100720.66;5043102;28;20136;-63
2022/10/30 08:13:45;;;;;;;22.20;7.75;;;;;;;13.89;93.16;100728.38;5046852;28;20045;-64
2022/10/30 08:16:12;;;;;;;18.75;8.18;;;;;;;14.01;92.90;100734.38;5050810;28;20044;-64
2022/10/30 08:18:41;;;;;;;13.13;6.90;;;;;;;13.98;92.90;100735.84;5064598;28;20056;-64
2022/10/30 08:21:09;;;;;;;13.68;6.53;;;;;;;14.04;92.73;100747.84;5045589;28;20111;-64
2022/10/30 08:23:36;;;;;;;34.95;8.10;;;;;;;14.06;92.80;100748.38;5044783;28;20048;-63
2022/10/30 08:26:04;;;;;;;11.93;5.70;;;;;;;13.97;92.26;100748.19;5044637;28;20053;-64
2022/10/30 08:28:31;;;;;;;32.72;10.50;;;;;;;14.09;92.87;100752.56;5048091;28;20052;-63
2022/10/30 08:31:00;;;;;;;39.42;10.63;;;;;;;14.25;92.39;100742.78;5058681;28;20053;-63
2022/10/30 08:33:27;;;;;;;12.77;7.22;;;;;;;14.30;92.42;100748.38;5049930;28;20076;-63
2022/10/30 08:35:56;;;;;;;10.85;7.28;;;;;;;14.30;92.22;100750.34;5045471;28;20045;-64
2022/10/30 08:38:24;;;;;;;8.27;6.50;;;;;;;14.41;92.49;100754.69;5043367;28;20053;-63
2022/10/30 08:40:51;;;;;;;14.77;7.22;;;;;;;14.72;92.87;100760.75;5045545;28;20512;-64
2022/10/30 08:43:18;;;;;;;8.25;5.55;;;;;;;15.04;92.45;100759.97;5046683;28;20419;-64
2022/10/30 08:45:46;;;;;;;11.40;7.35;;;;;;;15.38;92.47;100768.13;5048364;28;20068;-63
2022/10/30 08:48:16;;;;;;;7.78;6.32;;;;;;;15.65;92.02;100763.72;5051822;28;20508;-64
2022/10/30 08:50:43;;;;;;;11.43;5.57;;;;;;;15.80;91.16;100769.09;5049031;28;20059;-64
2022/10/30 08:53:13;;;;;;;11.82;6.03;;;;;;;15.58;90.72;100766.09;5049073;28;20059;-63
2022/10/30 08:55:39;;;;;;;8.60;5.13;;;;;;;15.66;91.04;100771.06;5050827;28;20044;-65
2022/10/30 08:58:06;;;;;;;11.43;6.03;;;;;;;15.70;90.28;100769.28;5040919;28;20510;-64
2022/10/30 09:00:34;;;;;;;5.25;4.53;;;;;;;15.94;90.19;100773.91;5040092;28;20052;-64
2022/10/30 09:03:01;;;;;;;7.28;5.38;;;;;;;16.33;90.18;100764.94;5040311;28;20053;-65
2022/10/30 09:05:29;;;;;;;10.75;6.60;;;;;;;17.14;89.51;100742.53;5037773;28;20061;-63
2022/10/30 09:07:57;;;;;;;6.55;5.93;;;;;;;18.53;88.31;100745.22;5041040;28;20080;-64
2022/10/30 09:10:26;;;;;;;6.17;5.57;;;;;;;19.35;86.36;100738.63;5038982;28;20487;-65
2022/10/30 09:13:01;;;;;;;7.28;6.57;;;;;;;19.48;83.68;100735.94;5045169;28;20418;-65
2022/10/30 09:15:28;;;;;;;7.43;4.65;;;;;;;19.06;82.65;100742.13;5045653;28;20049;-65
2022/10/30 09:17:56;;;;;;;5.68;4.45;;;;;;;18.89;83.27;100736.47;5040298;28;20049;-64
2022/10/30 09:20:24;;;;;;;5.88;3.95;;;;;;;18.67;83.28;100746.75;5039577;28;20057;-64
2022/10/30 09:22:51;;;;;;;5.18;4.68;;;;;;;18.06;81.85;100740.09;5048573;28;20063;-64
2022/10/30 09:25:18;;;;;;;7.57;6.90;;;;;;;18.42;83.05;100750.34;5051470;28;20053;-64
2022/10/30 09:27:45;;;;;;;8.07;7.45;;;;;;;18.85;82.33;100736.31;5049384;28;20041;-64
2022/10/30 09:30:13;;;;;;;6.22;5.72;;;;;;;18.68;80.14;100731.44;5046485;28;20057;-64
2022/10/30 09:32:40;;;;;;;6.05;4.50;;;;;;;18.04;78.88;100739.59;5046872;28;20059;-65
2022/10/30 09:35:07;;;;;;;4.70;4.28;;;;;;;17.29;79.31;100730.00;5044817;28;20064;-64
2022/10/30 09:37:39;;;;;;;7.40;5.25;;;;;;;16.87;80.27;100739.81;5048997;28;20053;-64
2022/10/30 09:40:06;;;;;;;9.85;5.78;;;;;;;16.78;82.46;100731.25;5044920;28;20072;-64
2022/10/30 09:42:44;;;;;;;5.70;4.18;;;;;;;16.94;82.12;100723.28;5051156;28;20065;-65
2022/10/30 09:45:49;;;;;;;6.50;5.22;;;;;;;17.39;83.36;100741.03;5047693;28;20045;-64
2022/10/30 09:48:29;;;;;;;4.95;4.13;;;;;;;17.37;81.59;100742.53;5047015;28;20431;-65
2022/10/30 09:51:04;;;;;;;7.18;5.88;;;;;;;17.83;83.12;100744.16;5046609;28;20053;-64
2022/10/30 09:53:47;;;;;;;5.38;4.32;;;;;;;18.00;81.04;100744.22;5043778;28;20505;-65
2022/10/30 09:56:22;;;;;;;10.77;9.73;;;;;;;18.33;82.68;100738.22;5041816;28;20053;-64
2022/10/30 09:58:52;;;;;;;8.70;7.90;;;;;;;19.07;79.61;100738.13;5045557;28;20075;-65
2022/10/30 10:01:36;;;;;;;9.57;8.48;;;;;;;18.89;79.05;100737.31;5035900;28;20058;-64
2022/10/30 10:04:32;;;;;;;11.25;10.10;;;;;;;20.28;82.72;100737.00;5042540;28;20052;-64
2022/10/30 10:07:03;;;;;;;12.40;11.55;;;;;;;21.16;75.75;100745.75;5044901;28;20049;-64
2022/10/30 10:09:33;;;;;;;11.18;10.18;;;;;;;22.27;75.26;100744.09;5044875;28;20045;-65
2022/10/30 10:12:32;;;;;;;10.65;9.45;;;;;;;22.80;71.97;100736.44;5041902;28;20063;-64
2022/10/30 10:15:03;;;;;;;13.88;12.95;;;;;;;23.31;70.28;100746.16;5039600;28;20418;-64
2022/10/30 10:17:36;;;;;;;9.15;8.48;;;;;;;23.24;67.88;100733.75;5041205;28;20063;-64
2022/10/30 10:20:04;;;;;;;11.02;9.95;;;;;;;22.73;66.94;100739.91;5057085;28;20481;-62
2022/10/30 10:22:48;;;;;;;11.95;10.98;;;;;;;23.78;64.66;100739.78;5045606;28;20041;-62
2022/10/30 10:25:18;;;;;;;9.90;9.15;;;;;;;23.76;61.95;100733.66;5040587;28;20420;-62
2022/10/30 10:28:00;;;;;;;9.05;8.35;;;;;;;23.79;59.42;100734.91;5055436;28;20443;-62
2022/10/30 10:31:02;;;;;;;10.95;9.95;;;;;;;23.31;60.94;100728.25;5044616;28;20063;-63
2022/10/30 10:33:38;;;;;;;10.88;9.70;;;;;;;23.66;60.77;100742.69;5028426;28;20496;-62
2022/10/30 10:36:50;;;;;;;11.20;10.05;;;;;;;25.48;60.57;100726.31;5043336;28;20056;-62
2022/10/30 10:39:20;;;;;;;9.15;8.43;;;;;;;26.86;56.79;100721.34;5046612;28;20076;-62
2022/10/30 10:41:53;;;;;;;;;;;;;;;27.92;54.73;100728.00;5045129;28;20610;-62
2022/10/30 10:44:42;;;;;;;9.80;8.52;;;;;;;27.54;52.34;100716.50;5037828;28;19928;-63
2022/10/30 10:47:50;;;;;;;9.15;8.55;;;;;;;26.66;50.04;100716.97;5038404;28;20480;-62
2022/10/30 10:50:25;;;;;;;9.00;8.30;;;;;;;25.71;52.66;100723.50;5041261;28;20055;-61
2022/10/30 10:53:13;;;;;;;8.55;7.82;;;;;;;25.82;51.52;100707.38;5044678;28;20504;-61
2022/10/30 10:55:47;;;;;;;8.70;8.20;;;;;;;24.73;51.94;100716.94;5043070;28;20053;-62
2022/10/30 10:59:18;;;;;;;8.23;7.50;;;;;;;24.62;52.33;100718.72;5043898;28;20052;-62
2022/10/30 11:01:55;;;;;;;9.15;8.63;;;;;;;24.66;52.23;100722.47;5007936;28;20053;-62
2022/10/30 11:04:30;;;;;;;12.98;12.25;;;;;;;25.40;51.45;100713.06;5049208;28;20110;-63
2022/10/30 11:07:14;;;;;;;9.55;8.40;;;;;;;25.94;50.33;100710.03;5042342;28;20382;-63
2022/10/30 11:09:41;;;;;;;11.60;10.70;;;;;;;26.24;49.33;100706.47;5047903;28;20049;-63
2022/10/30 11:12:08;;;;;;;12.98;12.07;;;;;;;26.81;48.62;100704.50;5044649;28;20045;-63
2022/10/30 11:14:36;;;;;;;8.38;7.78;;;;;;;26.89;46.75;100702.56;5048126;28;20068;-62
2022/10/30 11:17:18;;;;;;;9.02;8.30;;;;;;;27.92;45.74;100707.91;5062687;28;20053;-61
2022/10/30 11:19:48;;;;;;;8.60;8.10;;;;;;;27.91;46.06;100706.28;5042271;28;20048;-62
2022/10/30 11:22:23;;;;;;;9.35;8.70;;;;;;;29.14;45.15;100703.91;5042438;28;20048;-63
2022/10/30 11:24:50;;;;;;;13.90;13.07;;;;;;;30.05;42.86;100689.34;5046063;28;20064;-62
2022/10/30 11:27:20;;;;;;;9.90;9.20;;;;;;;30.05;42.76;100701.72;5042499;28;20037;-63
2022/10/30 11:30:06;;;;;;;9.68;9.00;;;;;;;28.78;40.57;100695.06;5046753;28;20527;-61
2022/10/30 11:32:33;;;;;;;8.48;7.82;;;;;;;29.38;41.58;100691.66;5046747;28;20060;-63
2022/10/30 11:35:06;;;;;;;9.63;7.68;;;;;;;30.85;37.63;100698.38;5045348;28;20045;-62
2022/10/30 11:37:38;;;;;;;9.52;8.90;;;;;;;30.25;37.23;100699.25;5049916;28;20045;-62
2022/10/30 11:40:08;;;;;;;8.35;7.85;;;;;;;29.69;39.13;100695.88;5049196;28;20606;-61